Aérodrome :
LOGIN :

S'inscrire | Disclaimer

   EN    FR    IT 

 










Légende :    VFR   VFR Marginal   IFR   IFR Intensif   IFR Très Intensif
Visi : 
Plafond : 
>= 8 km
>= 3000ft
5 à 8 km
1000 à 3000 ft
1500m à 5 km
500 à 1000 ft
800 à 1500m
200 à 500 ft
< 800m
< 200 ft
Symboles :   Orages  Brouillard  Fortes neiges  Fortes précipitations  Vent > 20 kt
SIGMETs :   Divers  Orages  Givrage  Turbulence  Onde Orograph.  Cendres Volcan.






- Altitude de l'aérodrome : 183 ft
- Code IATA : HAJ


EDDV - Hanover/Langenhagen Int.

DERNIER METAR :
  • 060450Z 10005KT CAVOK 04/M01 Q1020 NOSIG

METARs EXPIRÉS :
  • 060420Z 09006KT CAVOK 05/M00 Q1020 NOSIG
  • 060350Z 11005KT CAVOK 06/M00 Q1020 NOSIG
  • 060320Z 12005KT 080V160 CAVOK 07/M00 Q1020
  • 060250Z 11007KT 090V150 CAVOK 06/M00 Q1020
  • 060220Z 10005KT CAVOK 06/00 Q1020
  • 060150Z 10006KT CAVOK 07/00 Q1021

TAF TAF EDDV
Valide du 06 à 00h jusqu'au 07 à 00h UTC


052300Z 0600/0624 12007KT CAVOK
BECMG 0608/0610 18009KT
BECMG 0617/0620 22004KT



MET'MAP, la Météo Aéronautique d'un coup d'oeil ! - Copyright ORBIFLY Décembre 2007 - Disclaimer

ORBIFLY MET'MAP TEAM :

Programmation & Développement : Alexandra Zaïnal
Sur une idée originale de : Baudouin d'Aumeries
Assistance à la programmation : Marc-Olivier Méhu
Soutien technique & logistique : Manuel Goepfert

Contact : metmap@orbifly.com




SOURCES & CREDITS :

   NOAA